sensor_id;sensor_type;location;lat;lon;timestamp;P1;durP1;ratioP1;P2;durP2;ratioP2
56297;SDS011;42208;6.376;-10.782;2022-08-01T00:00:18;26.02;;;11.15;;
56297;SDS011;42208;6.376;-10.782;2022-08-01T00:02:46;34.90;;;13.35;;
56297;SDS011;42208;6.376;-10.782;2022-08-01T00:05:14;36.85;;;14.35;;
56297;SDS011;42208;6.376;-10.782;2022-08-01T00:07:43;33.03;;;13.38;;
56297;SDS011;42208;6.376;-10.782;2022-08-01T00:10:12;24.92;;;10.70;;
56297;SDS011;42208;6.376;-10.782;2022-08-01T00:12:42;22.98;;;10.50;;
56297;SDS011;42208;6.376;-10.782;2022-08-01T00:15:12;25.17;;;9.00;;
56297;SDS011;42208;6.376;-10.782;2022-08-01T00:17:42;21.83;;;9.05;;
56297;SDS011;42208;6.376;-10.782;2022-08-01T00:20:12;24.27;;;9.55;;
56297;SDS011;42208;6.376;-10.782;2022-08-01T00:22:41;25.77;;;11.40;;
56297;SDS011;42208;6.376;-10.782;2022-08-01T00:25:09;23.08;;;9.95;;
56297;SDS011;42208;6.376;-10.782;2022-08-01T00:27:38;22.65;;;10.27;;
56297;SDS011;42208;6.376;-10.782;2022-08-01T00:30:06;22.63;;;10.18;;
56297;SDS011;42208;6.376;-10.782;2022-08-01T00:32:41;15.00;;;8.80;;
56297;SDS011;42208;6.376;-10.782;2022-08-01T00:35:10;20.98;;;8.60;;
56297;SDS011;42208;6.376;-10.782;2022-08-01T00:37:38;22.10;;;9.00;;
56297;SDS011;42208;6.376;-10.782;2022-08-01T00:40:07;20.02;;;9.07;;
56297;SDS011;42208;6.376;-10.782;2022-08-01T00:42:35;20.30;;;9.35;;
56297;SDS011;42208;6.376;-10.782;2022-08-01T00:45:09;23.50;;;9.60;;
56297;SDS011;42208;6.376;-10.782;2022-08-01T00:47:38;22.10;;;8.73;;
56297;SDS011;42208;6.376;-10.782;2022-08-01T00:50:07;20.05;;;9.55;;
56297;SDS011;42208;6.376;-10.782;2022-08-01T00:52:35;25.83;;;8.65;;
56297;SDS011;42208;6.376;-10.782;2022-08-01T00:55:06;23.00;;;9.25;;
56297;SDS011;42208;6.376;-10.782;2022-08-01T00:57:40;22.15;;;9.38;;
56297;SDS011;42208;6.376;-10.782;2022-08-01T01:00:29;26.45;;;10.63;;
56297;SDS011;42208;6.376;-10.782;2022-08-01T01:03:00;24.05;;;9.50;;
56297;SDS011;42208;6.376;-10.782;2022-08-01T01:05:29;31.75;;;12.43;;
56297;SDS011;42208;6.376;-10.782;2022-08-01T01:08:04;27.38;;;10.70;;
56297;SDS011;42208;6.376;-10.782;2022-08-01T01:13:54;29.40;;;11.90;;
56297;SDS011;42208;6.376;-10.782;2022-08-01T01:16:36;31.35;;;13.95;;
56297;SDS011;42208;6.376;-10.782;2022-08-01T01:19:08;31.80;;;12.77;;
56297;SDS011;42208;6.376;-10.782;2022-08-01T01:24:47;24.38;;;9.13;;
56297;SDS011;42208;6.376;-10.782;2022-08-01T01:27:49;25.90;;;10.30;;
56297;SDS011;42208;6.376;-10.782;2022-08-01T01:30:30;32.38;;;11.25;;
56297;SDS011;42208;6.376;-10.782;2022-08-01T01:33:00;32.78;;;11.60;;
56297;SDS011;42208;6.376;-10.782;2022-08-01T01:35:35;25.77;;;13.32;;
56297;SDS011;42208;6.376;-10.782;2022-08-01T01:38:24;32.53;;;16.00;;
56297;SDS011;42208;6.376;-10.782;2022-08-01T01:40:56;25.85;;;13.00;;
56297;SDS011;42208;6.376;-10.782;2022-08-01T01:43:27;23.40;;;11.02;;
56297;SDS011;42208;6.376;-10.782;2022-08-01T01:45:59;30.70;;;13.65;;
56297;SDS011;42208;6.376;-10.782;2022-08-01T01:48:29;24.73;;;11.95;;
56297;SDS011;42208;6.376;-10.782;2022-08-01T01:50:59;32.38;;;13.57;;
56297;SDS011;42208;6.376;-10.782;2022-08-01T01:53:28;52.08;;;29.13;;
56297;SDS011;42208;6.376;-10.782;2022-08-01T01:56:01;63.75;;;40.30;;
56297;SDS011;42208;6.376;-10.782;2022-08-01T01:58:31;71.32;;;38.83;;
56297;SDS011;42208;6.376;-10.782;2022-08-01T02:01:01;93.53;;;50.28;;
56297;SDS011;42208;6.376;-10.782;2022-08-01T02:03:40;99.88;;;52.42;;
56297;SDS011;42208;6.376;-10.782;2022-08-01T02:06:11;92.15;;;47.13;;
56297;SDS011;42208;6.376;-10.782;2022-08-01T02:08:42;103.97;;;55.78;;
56297;SDS011;42208;6.376;-10.782;2022-08-01T02:11:12;90.20;;;49.85;;
56297;SDS011;42208;6.376;-10.782;2022-08-01T02:13:40;41.10;;;18.67;;
56297;SDS011;42208;6.376;-10.782;2022-08-01T02:16:10;18.98;;;10.73;;
56297;SDS011;42208;6.376;-10.782;2022-08-01T02:18:39;38.30;;;16.40;;
56297;SDS011;42208;6.376;-10.782;2022-08-01T02:21:09;27.17;;;13.30;;
56297;SDS011;42208;6.376;-10.782;2022-08-01T02:23:42;30.67;;;13.40;;
56297;SDS011;42208;6.376;-10.782;2022-08-01T02:26:13;58.35;;;28.92;;
56297;SDS011;42208;6.376;-10.782;2022-08-01T02:28:46;36.15;;;15.98;;
56297;SDS011;42208;6.376;-10.782;2022-08-01T02:31:19;41.08;;;19.98;;
56297;SDS011;42208;6.376;-10.782;2022-08-01T02:33:52;50.88;;;23.17;;
56297;SDS011;42208;6.376;-10.782;2022-08-01T02:36:25;109.20;;;49.10;;
56297;SDS011;42208;6.376;-10.782;2022-08-01T02:39:03;95.65;;;40.35;;
56297;SDS011;42208;6.376;-10.782;2022-08-01T02:41:38;74.78;;;35.15;;
56297;SDS011;42208;6.376;-10.782;2022-08-01T02:44:15;83.50;;;37.83;;
56297;SDS011;42208;6.376;-10.782;2022-08-01T02:46:51;72.10;;;32.80;;
56297;SDS011;42208;6.376;-10.782;2022-08-01T02:49:24;146.55;;;65.85;;
56297;SDS011;42208;6.376;-10.782;2022-08-01T02:51:55;157.02;;;68.97;;
56297;SDS011;42208;6.376;-10.782;2022-08-01T02:54:24;108.47;;;47.90;;
56297;SDS011;42208;6.376;-10.782;2022-08-01T02:57:01;140.27;;;61.03;;
56297;SDS011;42208;6.376;-10.782;2022-08-01T02:59:32;134.63;;;56.22;;
56297;SDS011;42208;6.376;-10.782;2022-08-01T03:02:07;123.22;;;52.83;;
56297;SDS011;42208;6.376;-10.782;2022-08-01T03:04:38;104.10;;;43.88;;
56297;SDS011;42208;6.376;-10.782;2022-08-01T03:07:09;26.05;;;10.43;;
56297;SDS011;42208;6.376;-10.782;2022-08-01T03:09:41;29.10;;;12.17;;
56297;SDS011;42208;6.376;-10.782;2022-08-01T03:12:14;36.25;;;12.00;;
56297;SDS011;42208;6.376;-10.782;2022-08-01T03:14:46;28.38;;;12.70;;
56297;SDS011;42208;6.376;-10.782;2022-08-01T03:17:18;27.23;;;12.50;;
56297;SDS011;42208;6.376;-10.782;2022-08-01T03:19:48;28.08;;;12.38;;
56297;SDS011;42208;6.376;-10.782;2022-08-01T03:22:17;23.33;;;11.85;;
56297;SDS011;42208;6.376;-10.782;2022-08-01T03:24:49;27.67;;;12.37;;
56297;SDS011;42208;6.376;-10.782;2022-08-01T03:27:20;20.98;;;12.68;;
56297;SDS011;42208;6.376;-10.782;2022-08-01T03:29:51;23.45;;;13.70;;
56297;SDS011;42208;6.376;-10.782;2022-08-01T03:32:23;27.42;;;12.75;;
56297;SDS011;42208;6.376;-10.782;2022-08-01T03:34:53;27.65;;;13.32;;
56297;SDS011;42208;6.376;-10.782;2022-08-01T03:37:34;22.67;;;14.23;;
56297;SDS011;42208;6.376;-10.782;2022-08-01T03:40:30;29.45;;;13.65;;
56297;SDS011;42208;6.376;-10.782;2022-08-01T03:43:04;27.02;;;13.90;;
56297;SDS011;42208;6.376;-10.782;2022-08-01T03:48:09;24.70;;;12.50;;
56297;SDS011;42208;6.376;-10.782;2022-08-01T03:50:45;23.88;;;11.57;;
56297;SDS011;42208;6.376;-10.782;2022-08-01T03:53:16;23.33;;;11.35;;
56297;SDS011;42208;6.376;-10.782;2022-08-01T03:55:52;17.58;;;10.60;;
56297;SDS011;42208;6.376;-10.782;2022-08-01T03:58:21;18.40;;;11.75;;
56297;SDS011;42208;6.376;-10.782;2022-08-01T04:00:49;21.35;;;11.45;;
56297;SDS011;42208;6.376;-10.782;2022-08-01T04:03:18;17.20;;;11.52;;
56297;SDS011;42208;6.376;-10.782;2022-08-01T04:05:47;19.10;;;11.57;;
56297;SDS011;42208;6.376;-10.782;2022-08-01T04:08:15;21.25;;;12.20;;
56297;SDS011;42208;6.376;-10.782;2022-08-01T04:10:43;19.35;;;11.85;;
56297;SDS011;42208;6.376;-10.782;2022-08-01T04:13:16;25.65;;;12.63;;
56297;SDS011;42208;6.376;-10.782;2022-08-01T04:15:44;20.42;;;11.25;;
56297;SDS011;42208;6.376;-10.782;2022-08-01T04:18:12;20.25;;;12.23;;
56297;SDS011;42208;6.376;-10.782;2022-08-01T04:20:40;19.70;;;11.10;;
56297;SDS011;42208;6.376;-10.782;2022-08-01T04:23:08;18.27;;;11.05;;
56297;SDS011;42208;6.376;-10.782;2022-08-01T04:25:39;16.52;;;9.80;;
56297;SDS011;42208;6.376;-10.782;2022-08-01T04:28:07;19.83;;;11.55;;
56297;SDS011;42208;6.376;-10.782;2022-08-01T04:30:39;16.05;;;10.70;;
56297;SDS011;42208;6.376;-10.782;2022-08-01T04:33:08;18.30;;;11.43;;
56297;SDS011;42208;6.376;-10.782;2022-08-01T04:35:39;17.88;;;10.82;;
56297;SDS011;42208;6.376;-10.782;2022-08-01T04:38:30;21.25;;;10.95;;
56297;SDS011;42208;6.376;-10.782;2022-08-01T04:41:01;18.45;;;10.27;;
56297;SDS011;42208;6.376;-10.782;2022-08-01T04:43:38;21.80;;;11.23;;
56297;SDS011;42208;6.376;-10.782;2022-08-01T04:46:10;23.70;;;11.02;;
56297;SDS011;42208;6.376;-10.782;2022-08-01T04:48:40;15.95;;;10.02;;
56297;SDS011;42208;6.376;-10.782;2022-08-01T04:51:15;16.63;;;10.20;;
56297;SDS011;42208;6.376;-10.782;2022-08-01T04:53:45;17.00;;;10.05;;
56297;SDS011;42208;6.376;-10.782;2022-08-01T04:56:13;18.10;;;11.23;;
56297;SDS011;42208;6.376;-10.782;2022-08-01T04:58:42;19.17;;;12.43;;
56297;SDS011;42208;6.376;-10.782;2022-08-01T05:01:11;21.23;;;12.65;;
56297;SDS011;42208;6.376;-10.782;2022-08-01T05:03:39;21.67;;;12.43;;
56297;SDS011;42208;6.376;-10.782;2022-08-01T05:06:07;19.00;;;11.63;;
56297;SDS011;42208;6.376;-10.782;2022-08-01T05:08:36;22.52;;;12.20;;
56297;SDS011;42208;6.376;-10.782;2022-08-01T05:11:04;27.02;;;13.20;;
56297;SDS011;42208;6.376;-10.782;2022-08-01T05:13:32;25.45;;;12.98;;
56297;SDS011;42208;6.376;-10.782;2022-08-01T05:16:00;27.52;;;13.85;;
56297;SDS011;42208;6.376;-10.782;2022-08-01T05:18:29;26.25;;;16.42;;
56297;SDS011;42208;6.376;-10.782;2022-08-01T05:20:58;25.58;;;16.27;;
56297;SDS011;42208;6.376;-10.782;2022-08-01T05:23:26;26.67;;;14.63;;
56297;SDS011;42208;6.376;-10.782;2022-08-01T05:28:41;20.05;;;10.57;;
56297;SDS011;42208;6.376;-10.782;2022-08-01T05:31:09;17.88;;;11.05;;
56297;SDS011;42208;6.376;-10.782;2022-08-01T05:33:38;18.02;;;11.10;;
56297;SDS011;42208;6.376;-10.782;2022-08-01T05:36:06;19.70;;;10.93;;
56297;SDS011;42208;6.376;-10.782;2022-08-01T05:38:34;24.55;;;12.02;;
56297;SDS011;42208;6.376;-10.782;2022-08-01T05:41:02;19.38;;;10.05;;
56297;SDS011;42208;6.376;-10.782;2022-08-01T05:43:31;18.17;;;9.70;;
56297;SDS011;42208;6.376;-10.782;2022-08-01T05:45:59;18.42;;;10.10;;
56297;SDS011;42208;6.376;-10.782;2022-08-01T05:48:27;17.15;;;9.43;;
56297;SDS011;42208;6.376;-10.782;2022-08-01T05:50:55;21.10;;;9.75;;
56297;SDS011;42208;6.376;-10.782;2022-08-01T05:53:25;15.77;;;9.30;;
56297;SDS011;42208;6.376;-10.782;2022-08-01T05:55:53;16.27;;;10.30;;
56297;SDS011;42208;6.376;-10.782;2022-08-01T05:58:22;19.17;;;10.88;;
56297;SDS011;42208;6.376;-10.782;2022-08-01T06:00:50;23.13;;;12.05;;
56297;SDS011;42208;6.376;-10.782;2022-08-01T06:03:18;23.67;;;12.23;;
56297;SDS011;42208;6.376;-10.782;2022-08-01T06:05:47;19.80;;;12.10;;
56297;SDS011;42208;6.376;-10.782;2022-08-01T06:08:15;23.35;;;11.65;;
56297;SDS011;42208;6.376;-10.782;2022-08-01T06:10:43;19.58;;;11.20;;
56297;SDS011;42208;6.376;-10.782;2022-08-01T06:13:11;22.02;;;11.30;;
56297;SDS011;42208;6.376;-10.782;2022-08-01T06:15:40;19.65;;;11.60;;
56297;SDS011;42208;6.376;-10.782;2022-08-01T06:18:08;26.85;;;12.85;;
56297;SDS011;42208;6.376;-10.782;2022-08-01T06:20:36;27.27;;;11.73;;
56297;SDS011;42208;6.376;-10.782;2022-08-01T06:23:04;26.70;;;10.90;;
56297;SDS011;42208;6.376;-10.782;2022-08-01T06:25:53;23.38;;;11.45;;
56297;SDS011;42208;6.376;-10.782;2022-08-01T06:28:21;29.17;;;12.15;;
56297;SDS011;42208;6.376;-10.782;2022-08-01T06:30:50;21.85;;;11.25;;
56297;SDS011;42208;6.376;-10.782;2022-08-01T06:33:18;24.63;;;11.27;;
56297;SDS011;42208;6.376;-10.782;2022-08-01T06:35:46;26.42;;;11.15;;
56297;SDS011;42208;6.376;-10.782;2022-08-01T06:38:14;19.92;;;10.75;;
56297;SDS011;42208;6.376;-10.782;2022-08-01T06:40:43;25.33;;;10.85;;
56297;SDS011;42208;6.376;-10.782;2022-08-01T06:43:11;18.77;;;10.27;;
56297;SDS011;42208;6.376;-10.782;2022-08-01T06:45:39;22.27;;;11.02;;
56297;SDS011;42208;6.376;-10.782;2022-08-01T06:48:08;21.35;;;9.75;;
56297;SDS011;42208;6.376;-10.782;2022-08-01T06:50:36;17.73;;;11.10;;
56297;SDS011;42208;6.376;-10.782;2022-08-01T06:53:05;19.17;;;12.43;;
56297;SDS011;42208;6.376;-10.782;2022-08-01T06:55:33;24.70;;;12.05;;
56297;SDS011;42208;6.376;-10.782;2022-08-01T06:58:01;20.02;;;12.18;;
56297;SDS011;42208;6.376;-10.782;2022-08-01T07:00:30;19.63;;;11.77;;
56297;SDS011;42208;6.376;-10.782;2022-08-01T07:02:58;21.17;;;11.68;;
56297;SDS011;42208;6.376;-10.782;2022-08-01T07:05:26;33.28;;;15.32;;
56297;SDS011;42208;6.376;-10.782;2022-08-01T07:07:55;34.25;;;18.25;;
56297;SDS011;42208;6.376;-10.782;2022-08-01T07:10:23;28.90;;;17.98;;
56297;SDS011;42208;6.376;-10.782;2022-08-01T07:12:51;30.40;;;19.98;;
56297;SDS011;42208;6.376;-10.782;2022-08-01T07:15:19;33.58;;;19.30;;
56297;SDS011;42208;6.376;-10.782;2022-08-01T07:17:48;30.50;;;18.15;;
56297;SDS011;42208;6.376;-10.782;2022-08-01T07:20:16;31.05;;;17.90;;
56297;SDS011;42208;6.376;-10.782;2022-08-01T07:22:45;27.35;;;16.67;;
56297;SDS011;42208;6.376;-10.782;2022-08-01T07:25:14;27.00;;;16.02;;
56297;SDS011;42208;6.376;-10.782;2022-08-01T07:27:42;27.05;;;16.25;;
56297;SDS011;42208;6.376;-10.782;2022-08-01T07:30:10;23.33;;;14.85;;
56297;SDS011;42208;6.376;-10.782;2022-08-01T07:32:39;24.58;;;13.65;;
56297;SDS011;42208;6.376;-10.782;2022-08-01T07:35:07;19.67;;;13.48;;
56297;SDS011;42208;6.376;-10.782;2022-08-01T07:37:36;18.17;;;12.57;;
56297;SDS011;42208;6.376;-10.782;2022-08-01T07:40:14;23.35;;;13.45;;
56297;SDS011;42208;6.376;-10.782;2022-08-01T07:42:44;16.33;;;12.15;;
56297;SDS011;42208;6.376;-10.782;2022-08-01T07:45:13;18.00;;;12.13;;
56297;SDS011;42208;6.376;-10.782;2022-08-01T07:47:42;18.77;;;12.52;;
56297;SDS011;42208;6.376;-10.782;2022-08-01T07:50:10;17.23;;;12.27;;
56297;SDS011;42208;6.376;-10.782;2022-08-01T07:52:39;24.67;;;12.88;;
56297;SDS011;42208;6.376;-10.782;2022-08-01T07:55:07;23.33;;;13.95;;
56297;SDS011;42208;6.376;-10.782;2022-08-01T07:57:48;25.25;;;13.55;;
56297;SDS011;42208;6.376;-10.782;2022-08-01T08:00:16;25.23;;;13.85;;
56297;SDS011;42208;6.376;-10.782;2022-08-01T08:02:45;25.40;;;14.40;;
56297;SDS011;42208;6.376;-10.782;2022-08-01T08:05:13;26.60;;;13.57;;
56297;SDS011;42208;6.376;-10.782;2022-08-01T08:08:05;22.85;;;13.15;;
56297;SDS011;42208;6.376;-10.782;2022-08-01T08:10:34;24.67;;;14.45;;
56297;SDS011;42208;6.376;-10.782;2022-08-01T08:13:03;16.95;;;12.73;;
56297;SDS011;42208;6.376;-10.782;2022-08-01T08:15:31;22.75;;;13.85;;
56297;SDS011;42208;6.376;-10.782;2022-08-01T08:17:59;22.02;;;14.15;;
56297;SDS011;42208;6.376;-10.782;2022-08-01T08:20:28;22.90;;;14.85;;
56297;SDS011;42208;6.376;-10.782;2022-08-01T08:22:57;24.00;;;14.55;;
56297;SDS011;42208;6.376;-10.782;2022-08-01T08:25:25;22.90;;;14.63;;
56297;SDS011;42208;6.376;-10.782;2022-08-01T08:27:54;23.38;;;14.95;;
56297;SDS011;42208;6.376;-10.782;2022-08-01T08:30:22;25.33;;;16.90;;
56297;SDS011;42208;6.376;-10.782;2022-08-01T08:32:50;30.02;;;19.35;;
56297;SDS011;42208;6.376;-10.782;2022-08-01T08:35:19;32.85;;;19.58;;
56297;SDS011;42208;6.376;-10.782;2022-08-01T08:38:06;24.02;;;15.98;;
56297;SDS011;42208;6.376;-10.782;2022-08-01T08:40:37;25.00;;;13.93;;
56297;SDS011;42208;6.376;-10.782;2022-08-01T08:43:05;16.35;;;10.80;;
56297;SDS011;42208;6.376;-10.782;2022-08-01T08:45:34;15.55;;;9.45;;
56297;SDS011;42208;6.376;-10.782;2022-08-01T08:48:22;15.85;;;8.90;;
56297;SDS011;42208;6.376;-10.782;2022-08-01T08:50:53;12.60;;;8.80;;
56297;SDS011;42208;6.376;-10.782;2022-08-01T08:53:25;12.65;;;9.15;;
56297;SDS011;42208;6.376;-10.782;2022-08-01T08:56:01;12.32;;;8.38;;
56297;SDS011;42208;6.376;-10.782;2022-08-01T08:58:31;14.93;;;9.77;;
56297;SDS011;42208;6.376;-10.782;2022-08-01T09:00:59;19.40;;;10.55;;
56297;SDS011;42208;6.376;-10.782;2022-08-01T09:03:27;15.75;;;9.25;;
56297;SDS011;42208;6.376;-10.782;2022-08-01T09:05:56;18.10;;;9.63;;
56297;SDS011;42208;6.376;-10.782;2022-08-01T09:08:25;14.32;;;8.43;;
56297;SDS011;42208;6.376;-10.782;2022-08-01T09:10:53;14.98;;;9.55;;
56297;SDS011;42208;6.376;-10.782;2022-08-01T09:13:22;17.60;;;9.50;;
56297;SDS011;42208;6.376;-10.782;2022-08-01T09:15:51;16.33;;;9.65;;
56297;SDS011;42208;6.376;-10.782;2022-08-01T09:18:30;11.43;;;7.85;;
56297;SDS011;42208;6.376;-10.782;2022-08-01T09:21:08;18.55;;;13.05;;
56297;SDS011;42208;6.376;-10.782;2022-08-01T09:23:48;15.07;;;9.98;;
56297;SDS011;42208;6.376;-10.782;2022-08-01T09:26:22;8.32;;;6.78;;
56297;SDS011;42208;6.376;-10.782;2022-08-01T09:28:58;7.60;;;5.78;;
56297;SDS011;42208;6.376;-10.782;2022-08-01T09:31:39;9.35;;;5.70;;
56297;SDS011;42208;6.376;-10.782;2022-08-01T09:34:14;8.57;;;6.38;;
56297;SDS011;42208;6.376;-10.782;2022-08-01T09:36:46;11.27;;;7.15;;
56297;SDS011;42208;6.376;-10.782;2022-08-01T09:39:15;12.45;;;7.70;;
56297;SDS011;42208;6.376;-10.782;2022-08-01T09:41:43;12.30;;;7.82;;
56297;SDS011;42208;6.376;-10.782;2022-08-01T09:44:12;18.55;;;8.40;;
56297;SDS011;42208;6.376;-10.782;2022-08-01T09:46:51;9.65;;;6.90;;
56297;SDS011;42208;6.376;-10.782;2022-08-01T09:49:29;10.18;;;7.20;;
56297;SDS011;42208;6.376;-10.782;2022-08-01T09:52:20;11.90;;;7.32;;
56297;SDS011;42208;6.376;-10.782;2022-08-01T09:55:02;10.80;;;7.07;;
56297;SDS011;42208;6.376;-10.782;2022-08-01T09:57:32;7.60;;;5.82;;
56297;SDS011;42208;6.376;-10.782;2022-08-01T10:00:02;9.07;;;5.00;;
56297;SDS011;42208;6.376;-10.782;2022-08-01T10:02:39;10.52;;;6.47;;
56297;SDS011;42208;6.376;-10.782;2022-08-01T10:05:09;13.32;;;8.07;;
56297;SDS011;42208;6.376;-10.782;2022-08-01T10:08:00;12.77;;;8.75;;
56297;SDS011;42208;6.376;-10.782;2022-08-01T10:10:34;8.70;;;5.95;;
56297;SDS011;42208;6.376;-10.782;2022-08-01T10:13:03;11.57;;;5.43;;
56297;SDS011;42208;6.376;-10.782;2022-08-01T10:18:06;8.07;;;5.82;;
56297;SDS011;42208;6.376;-10.782;2022-08-01T10:20:52;10.23;;;6.05;;
56297;SDS011;42208;6.376;-10.782;2022-08-01T10:23:24;8.60;;;6.30;;
56297;SDS011;42208;6.376;-10.782;2022-08-01T10:26:06;8.82;;;5.40;;
56297;SDS011;42208;6.376;-10.782;2022-08-01T10:28:37;9.15;;;5.03;;
56297;SDS011;42208;6.376;-10.782;2022-08-01T10:31:07;8.63;;;5.28;;
56297;SDS011;42208;6.376;-10.782;2022-08-01T10:33:40;8.35;;;5.18;;
56297;SDS011;42208;6.376;-10.782;2022-08-01T10:36:20;8.15;;;5.47;;
56297;SDS011;42208;6.376;-10.782;2022-08-01T10:38:52;10.02;;;6.25;;
56297;SDS011;42208;6.376;-10.782;2022-08-01T10:41:21;8.43;;;5.10;;
56297;SDS011;42208;6.376;-10.782;2022-08-01T10:43:53;10.37;;;6.80;;
56297;SDS011;42208;6.376;-10.782;2022-08-01T10:46:22;8.77;;;7.40;;
56297;SDS011;42208;6.376;-10.782;2022-08-01T10:48:54;11.02;;;6.70;;
56297;SDS011;42208;6.376;-10.782;2022-08-01T10:51:27;7.85;;;6.28;;
56297;SDS011;42208;6.376;-10.782;2022-08-01T10:54:15;13.05;;;7.53;;
56297;SDS011;42208;6.376;-10.782;2022-08-01T10:56:44;17.27;;;7.72;;
56297;SDS011;42208;6.376;-10.782;2022-08-01T10:59:21;16.63;;;8.48;;
56297;SDS011;42208;6.376;-10.782;2022-08-01T11:02:11;11.85;;;8.02;;
56297;SDS011;42208;6.376;-10.782;2022-08-01T11:05:07;10.57;;;7.82;;
56297;SDS011;42208;6.376;-10.782;2022-08-01T11:07:45;11.07;;;6.70;;
56297;SDS011;42208;6.376;-10.782;2022-08-01T11:10:33;8.93;;;6.40;;
56297;SDS011;42208;6.376;-10.782;2022-08-01T11:13:09;9.85;;;7.10;;
56297;SDS011;42208;6.376;-10.782;2022-08-01T11:15:41;8.57;;;7.00;;
56297;SDS011;42208;6.376;-10.782;2022-08-01T11:20:58;14.52;;;8.38;;
56297;SDS011;42208;6.376;-10.782;2022-08-01T11:23:50;12.45;;;7.43;;
56297;SDS011;42208;6.376;-10.782;2022-08-01T11:26:18;13.82;;;8.60;;
56297;SDS011;42208;6.376;-10.782;2022-08-01T11:29:12;12.18;;;7.15;;
56297;SDS011;42208;6.376;-10.782;2022-08-01T11:31:48;10.90;;;6.65;;
56297;SDS011;42208;6.376;-10.782;2022-08-01T11:34:17;8.82;;;6.60;;
56297;SDS011;42208;6.376;-10.782;2022-08-01T11:36:46;14.35;;;8.18;;
56297;SDS011;42208;6.376;-10.782;2022-08-01T11:39:30;11.98;;;6.97;;
56297;SDS011;42208;6.376;-10.782;2022-08-01T11:42:17;11.68;;;7.32;;
56297;SDS011;42208;6.376;-10.782;2022-08-01T11:44:49;7.35;;;5.95;;
56297;SDS011;42208;6.376;-10.782;2022-08-01T11:47:18;10.40;;;7.30;;
56297;SDS011;42208;6.376;-10.782;2022-08-01T11:50:29;12.20;;;8.18;;
56297;SDS011;42208;6.376;-10.782;2022-08-01T11:55:30;15.05;;;8.10;;
56297;SDS011;42208;6.376;-10.782;2022-08-01T11:58:04;16.02;;;8.55;;
56297;SDS011;42208;6.376;-10.782;2022-08-01T12:00:51;16.70;;;8.25;;
56297;SDS011;42208;6.376;-10.782;2022-08-01T12:03:25;12.35;;;7.25;;
56297;SDS011;42208;6.376;-10.782;2022-08-01T12:05:59;12.73;;;7.90;;
56297;SDS011;42208;6.376;-10.782;2022-08-01T12:08:29;13.45;;;7.75;;
56297;SDS011;42208;6.376;-10.782;2022-08-01T12:11:00;16.50;;;8.38;;
56297;SDS011;42208;6.376;-10.782;2022-08-01T12:13:39;12.55;;;7.72;;
56297;SDS011;42208;6.376;-10.782;2022-08-01T12:16:09;16.00;;;8.68;;
56297;SDS011;42208;6.376;-10.782;2022-08-01T12:18:39;13.48;;;8.98;;
56297;SDS011;42208;6.376;-10.782;2022-08-01T12:21:09;23.73;;;10.20;;
56297;SDS011;42208;6.376;-10.782;2022-08-01T12:23:37;15.38;;;9.40;;
56297;SDS011;42208;6.376;-10.782;2022-08-01T12:26:06;21.67;;;8.30;;
56297;SDS011;42208;6.376;-10.782;2022-08-01T12:28:54;10.85;;;7.10;;
56297;SDS011;42208;6.376;-10.782;2022-08-01T12:31:30;17.75;;;7.50;;
56297;SDS011;42208;6.376;-10.782;2022-08-01T12:36:57;14.07;;;7.18;;
56297;SDS011;42208;6.376;-10.782;2022-08-01T12:39:31;12.38;;;7.03;;
56297;SDS011;42208;6.376;-10.782;2022-08-01T12:42:00;8.45;;;5.47;;
56297;SDS011;42208;6.376;-10.782;2022-08-01T12:47:00;19.67;;;7.25;;
56297;SDS011;42208;6.376;-10.782;2022-08-01T12:49:34;18.38;;;8.50;;
56297;SDS011;42208;6.376;-10.782;2022-08-01T12:52:04;12.73;;;8.18;;
56297;SDS011;42208;6.376;-10.782;2022-08-01T12:57:41;15.40;;;11.52;;
56297;SDS011;42208;6.376;-10.782;2022-08-01T13:00:13;11.45;;;7.55;;
56297;SDS011;42208;6.376;-10.782;2022-08-01T13:02:47;11.70;;;7.75;;
56297;SDS011;42208;6.376;-10.782;2022-08-01T13:05:17;17.58;;;8.90;;
56297;SDS011;42208;6.376;-10.782;2022-08-01T13:07:46;12.45;;;6.72;;
56297;SDS011;42208;6.376;-10.782;2022-08-01T13:10:27;12.32;;;7.88;;
56297;SDS011;42208;6.376;-10.782;2022-08-01T13:12:57;13.95;;;7.68;;
56297;SDS011;42208;6.376;-10.782;2022-08-01T13:15:30;11.85;;;7.40;;
56297;SDS011;42208;6.376;-10.782;2022-08-01T13:18:01;15.10;;;7.93;;
56297;SDS011;42208;6.376;-10.782;2022-08-01T13:21:35;10.52;;;6.35;;
56297;SDS011;42208;6.376;-10.782;2022-08-01T13:24:04;13.25;;;6.25;;
56297;SDS011;42208;6.376;-10.782;2022-08-01T13:29:21;15.35;;;6.90;;
56297;SDS011;42208;6.376;-10.782;2022-08-01T13:32:00;23.67;;;8.02;;
56297;SDS011;42208;6.376;-10.782;2022-08-01T13:35:03;12.18;;;6.65;;
56297;SDS011;42208;6.376;-10.782;2022-08-01T13:37:34;16.45;;;7.00;;
56297;SDS011;42208;6.376;-10.782;2022-08-01T13:40:08;17.35;;;7.63;;
56297;SDS011;42208;6.376;-10.782;2022-08-01T13:42:38;12.73;;;8.10;;
56297;SDS011;42208;6.376;-10.782;2022-08-01T13:45:06;14.38;;;8.98;;
56297;SDS011;42208;6.376;-10.782;2022-08-01T13:47:41;17.15;;;9.43;;
56297;SDS011;42208;6.376;-10.782;2022-08-01T13:50:30;14.90;;;8.32;;
56297;SDS011;42208;6.376;-10.782;2022-08-01T13:52:59;11.65;;;7.53;;
56297;SDS011;42208;6.376;-10.782;2022-08-01T13:55:27;14.77;;;7.82;;
56297;SDS011;42208;6.376;-10.782;2022-08-01T13:58:00;9.93;;;7.35;;
56297;SDS011;42208;6.376;-10.782;2022-08-01T14:00:30;15.07;;;8.45;;
56297;SDS011;42208;6.376;-10.782;2022-08-01T14:02:58;16.60;;;9.13;;
56297;SDS011;42208;6.376;-10.782;2022-08-01T14:05:26;16.40;;;8.85;;
56297;SDS011;42208;6.376;-10.782;2022-08-01T14:07:55;13.70;;;7.97;;
56297;SDS011;42208;6.376;-10.782;2022-08-01T14:10:24;8.98;;;6.35;;
56297;SDS011;42208;6.376;-10.782;2022-08-01T14:12:52;15.00;;;9.32;;
56297;SDS011;42208;6.376;-10.782;2022-08-01T14:15:22;10.90;;;6.88;;
56297;SDS011;42208;6.376;-10.782;2022-08-01T14:18:05;12.75;;;7.22;;
56297;SDS011;42208;6.376;-10.782;2022-08-01T14:20:36;13.15;;;7.10;;
56297;SDS011;42208;6.376;-10.782;2022-08-01T14:23:05;14.85;;;7.70;;
56297;SDS011;42208;6.376;-10.782;2022-08-01T14:25:38;17.23;;;7.72;;
56297;SDS011;42208;6.376;-10.782;2022-08-01T14:28:27;11.60;;;6.22;;
56297;SDS011;42208;6.376;-10.782;2022-08-01T14:30:57;17.42;;;10.68;;
56297;SDS011;42208;6.376;-10.782;2022-08-01T14:33:25;18.33;;;10.05;;
56297;SDS011;42208;6.376;-10.782;2022-08-01T14:35:54;11.63;;;7.78;;
56297;SDS011;42208;6.376;-10.782;2022-08-01T14:38:42;19.05;;;8.75;;
56297;SDS011;42208;6.376;-10.782;2022-08-01T14:41:13;23.60;;;12.85;;
56297;SDS011;42208;6.376;-10.782;2022-08-01T14:43:42;116.50;;;70.90;;
56297;SDS011;42208;6.376;-10.782;2022-08-01T14:46:11;25.55;;;17.27;;
56297;SDS011;42208;6.376;-10.782;2022-08-01T14:48:39;11.82;;;10.15;;
56297;SDS011;42208;6.376;-10.782;2022-08-01T14:51:08;9.90;;;6.85;;
56297;SDS011;42208;6.376;-10.782;2022-08-01T14:53:37;13.18;;;7.75;;
56297;SDS011;42208;6.376;-10.782;2022-08-01T14:56:12;11.65;;;7.03;;
56297;SDS011;42208;6.376;-10.782;2022-08-01T14:58:40;12.27;;;7.35;;
56297;SDS011;42208;6.376;-10.782;2022-08-01T15:01:09;13.07;;;6.93;;
56297;SDS011;42208;6.376;-10.782;2022-08-01T15:03:37;14.77;;;7.57;;
56297;SDS011;42208;6.376;-10.782;2022-08-01T15:06:06;17.48;;;8.48;;
56297;SDS011;42208;6.376;-10.782;2022-08-01T15:08:34;14.68;;;7.88;;
56297;SDS011;42208;6.376;-10.782;2022-08-01T15:11:03;15.85;;;8.15;;
56297;SDS011;42208;6.376;-10.782;2022-08-01T15:13:31;16.27;;;10.80;;
56297;SDS011;42208;6.376;-10.782;2022-08-01T15:16:06;13.65;;;7.32;;